Impacts TAF Board
For situational awareness. Not to be used for flight planning purposes.
IDs:

KSAT - San Antonio Intl, TX, US

Issued at 1720 UTC 02 Oct 2022
Updated at 2304 UTC 02 Oct 2022
Potential Impact None Slight Moderate High
Time2251Z 03/00Z 03/01Z 03/02Z 03/03Z 03/04Z 03/05Z 03/06Z 03/07Z 03/08Z 03/09Z 03/10Z 03/11Z 03/12Z>>
Type OBS PRVL PRVL PRVL PRVL PRVL PRVL PRVL PRVL PRVL PRVL PRVL PRVL PRVL
VIS 10 >6 >6 >6 >6 >6 >6 >6 >6 >6 >6 >6 >6 >6
CIG 250 250 250 250 250 250 250 250 250 250 250 250 250 250
Cover BKN BKN BKN BKN BKN BKN BKN BKN BKN BKN BKN BKN BKN BKN
FltCat VFR VFR VFR VFR VFR VFR VFR VFR VFR VFR VFR VFR VFR VFR
WX -- -- -- -- -- -- -- -- -- -- -- -- -- --
WDir VRB 120 VRB VRB VRB VRB VRB VRB VRB VRB VRB VRB VRB VRB
WSpd 4 8 3 3 3 3 3 3 3 3 3 3 3 3
WGst -- -- -- -- -- -- -- -- -- -- -- -- -- --
WSHgt -- -- -- -- -- -- -- -- -- -- -- -- -- --
WSDir -- -- -- -- -- -- -- -- -- -- -- -- -- --
WSSpd -- -- -- -- -- -- -- -- -- -- -- -- -- --
R04/22
XWnd VRB -8 VRB VRB VRB VRB VRB VRB VRB VRB VRB VRB VRB VRB
HWnd VRB 2 VRB VRB VRB VRB VRB VRB VRB VRB VRB VRB VRB VRB
R13/31
XWnd VRB 2 VRB VRB VRB VRB VRB VRB VRB VRB VRB VRB VRB VRB
HWnd VRB 8 VRB VRB VRB VRB VRB VRB VRB VRB VRB VRB VRB VRB
Raw TAF
KSAT 021720Z 0218/0324 12008KT P6SM BKN250
  FM030100 VRB03KT P6SM BKN250
  FM031500 10005KT P6SM SCT250


Raw METAR
KSAT 022251Z VRB04KT 10SM BKN250 28/08 A3011 RMK AO2 SLP180 T02780078 $
KSAT 022151Z 02004KT 10SM BKN250 28/08 A3010 RMK AO2 SLP178 T02830078 $
KSAT 022051Z 00000KT 10SM BKN250 28/08 A3010 RMK AO2 SLP176 T02830078 56021

METAR Board
Radar Display
Forecast Discussion
For situational awareness. Not to be used for flight planning purposes.